Time;durP1;ratioP1;P1;durP2;ratioP2;P2;SDS_P1;SDS_P2;PMS_P1;PMS_P2;Temp;Humidity;BMP_temperature;BMP_pressure;BME280_temperature;BME280_humidity;BME280_pressure;Samples;Min_cycle;Max_cycle;Signal;HPM_P1;HPM_P2
2022/01/01 00:01:58;;;;;;;27.58;21.48;;;;;;;;;;5109104;28;20440;-81
2022/01/01 00:04:24;;;;;;;26.03;18.63;;;;;;;;;;5104745;28;20179;-81
2022/01/01 00:06:50;;;;;;;26.30;20.07;;;;;;;;;;5119862;28;20440;-81
2022/01/01 00:09:16;;;;;;;20.05;17.88;;;;;;;;;;5108203;28;20421;-81
2022/01/01 00:11:42;;;;;;;25.45;20.77;;;;;;;;;;5113367;27;20235;-80
2022/01/01 00:14:08;;;;;;;25.42;20.85;;;;;;;;;;5111963;28;20228;-81
2022/01/01 00:16:35;;;;;;;27.83;23.50;;;;;;;;;;5116307;28;20190;-81
2022/01/01 00:19:01;;;;;;;29.88;22.70;;;;;;;;;;5111453;28;20215;-81
2022/01/01 00:21:27;;;;;;;31.50;24.45;;;;;;;;;;5121486;28;20202;-81
2022/01/01 00:23:53;;;;;;;31.73;23.30;;;;;;;;;;5111022;28;20245;-80
2022/01/01 00:26:19;;;;;;;31.00;22.30;;;;;;;;;;5108956;28;20179;-81
2022/01/01 00:28:45;;;;;;;26.25;20.08;;;;;;;;;;5120485;28;20437;-81
2022/01/01 00:31:11;;;;;;;26.27;15.02;;;;;;;;;;5121086;28;20187;-81
2022/01/01 00:33:37;;;;;;;14.90;10.73;;;;;;;;;;5107234;28;20203;-80
2022/01/01 00:36:03;;;;;;;15.73;12.20;;;;;;;;;;5106823;28;20175;-81
2022/01/01 00:38:29;;;;;;;13.82;10.45;;;;;;;;;;5117690;28;20207;-81
2022/01/01 00:40:56;;;;;;;13.57;9.77;;;;;;;;;;5118660;28;20229;-80
2022/01/01 00:43:22;;;;;;;14.38;9.13;;;;;;;;;;5105966;28;20503;-81
2022/01/01 00:45:48;;;;;;;17.92;10.68;;;;;;;;;;5117513;28;20175;-81
2022/01/01 00:48:14;;;;;;;16.02;10.88;;;;;;;;;;5092452;28;20179;-81
2022/01/01 00:50:40;;;;;;;13.87;10.40;;;;;;;;;;5108491;28;20192;-81
2022/01/01 00:53:06;;;;;;;12.52;9.82;;;;;;;;;;5106840;28;20477;-80
2022/01/01 00:55:33;;;;;;;11.30;9.88;;;;;;;;;;5089197;28;20191;-81
2022/01/01 00:57:59;;;;;;;11.20;9.23;;;;;;;;;;5119031;28;20191;-81
2022/01/01 01:00:25;;;;;;;11.23;8.63;;;;;;;;;;5100622;28;20211;-81
2022/01/01 01:02:51;;;;;;;13.60;8.50;;;;;;;;;;5108672;28;20250;-81
2022/01/01 01:05:17;;;;;;;13.47;8.67;;;;;;;;;;5112472;28;20176;-81
2022/01/01 01:07:43;;;;;;;11.30;9.80;;;;;;;;;;5118383;28;20437;-82
2022/01/01 01:10:09;;;;;;;11.88;9.38;;;;;;;;;;5101774;28;20203;-81
2022/01/01 01:12:43;;;;;;;12.63;9.32;;;;;;;;;;5108171;28;20231;-81
2022/01/01 01:15:11;;;;;;;10.23;8.93;;;;;;;;;;5100921;28;20175;-81
2022/01/01 01:17:37;;;;;;;12.02;9.15;;;;;;;;;;5109795;28;20208;-81
2022/01/01 01:20:04;;;;;;;13.77;9.65;;;;;;;;;;5092860;28;20214;-81
2022/01/01 01:22:30;;;;;;;10.27;8.27;;;;;;;;;;5106146;28;20221;-81
2022/01/01 01:24:56;;;;;;;10.27;8.57;;;;;;;;;;5104877;28;20422;-82
2022/01/01 01:27:23;;;;;;;8.00;7.20;;;;;;;;;;5105610;28;20480;-81
2022/01/01 01:29:49;;;;;;;12.02;8.60;;;;;;;;;;5108759;28;20461;-81
2022/01/01 01:32:15;;;;;;;10.63;8.38;;;;;;;;;;5092590;28;20660;-81
2022/01/01 01:34:42;;;;;;;11.10;8.48;;;;;;;;;;5092385;28;20687;-81
2022/01/01 01:37:08;;;;;;;12.25;8.65;;;;;;;;;;5102571;28;20184;-82
2022/01/01 01:39:34;;;;;;;14.68;8.38;;;;;;;;;;5106643;28;20244;-82
2022/01/01 01:42:00;;;;;;;10.10;8.55;;;;;;;;;;5108156;28;20184;-81
2022/01/01 01:44:28;;;;;;;9.13;8.20;;;;;;;;;;5102544;28;20172;-81
2022/01/01 01:46:54;;;;;;;12.27;9.52;;;;;;;;;;5091677;28;20276;-81
2022/01/01 01:49:20;;;;;;;11.27;8.32;;;;;;;;;;5087176;28;20656;-82
2022/01/01 01:51:46;;;;;;;13.73;7.35;;;;;;;;;;5104647;28;20183;-81
2022/01/01 01:54:16;;;;;;;12.32;9.30;;;;;;;;;;5108426;28;20214;-82
2022/01/01 01:56:43;;;;;;;10.65;8.20;;;;;;;;;;5096333;28;20187;-81
2022/01/01 01:59:10;;;;;;;10.85;8.13;;;;;;;;;;5096776;28;20207;-82
2022/01/01 02:01:36;;;;;;;13.45;9.45;;;;;;;;;;5109788;28;20291;-81
2022/01/01 02:04:02;;;;;;;13.18;9.35;;;;;;;;;;5107215;28;20948;-82
2022/01/01 02:06:28;;;;;;;13.32;9.27;;;;;;;;;;5109457;28;20164;-81
2022/01/01 02:08:54;;;;;;;11.82;9.65;;;;;;;;;;5094061;28;20600;-81
2022/01/01 02:11:21;;;;;;;13.25;9.32;;;;;;;;;;5096032;28;20184;-82
2022/01/01 02:14:03;;;;;;;18.67;10.60;;;;;;;;;;5096183;28;20179;-82
2022/01/01 02:16:37;;;;;;;11.20;9.00;;;;;;;;;;5120595;28;20182;-82
2022/01/01 02:19:03;;;;;;;10.48;7.97;;;;;;;;;;5106451;28;24593;-82
2022/01/01 02:21:29;;;;;;;11.18;8.25;;;;;;;;;;5109491;28;20179;-82
2022/01/01 02:23:59;;;;;;;10.95;9.10;;;;;;;;;;5117111;28;20221;-81
2022/01/01 02:26:30;;;;;;;10.48;9.40;;;;;;;;;;5117802;28;20172;-82
2022/01/01 02:28:56;;;;;;;15.68;9.50;;;;;;;;;;5110385;28;20181;-82
2022/01/01 02:31:22;;;;;;;13.68;9.30;;;;;;;;;;5090243;28;20179;-82
2022/01/01 02:33:48;;;;;;;12.47;9.17;;;;;;;;;;5107834;28;20175;-82
2022/01/01 02:36:14;;;;;;;17.90;12.43;;;;;;;;;;5091366;28;20422;-82
2022/01/01 02:38:40;;;;;;;15.37;11.43;;;;;;;;;;5114774;28;20528;-82
2022/01/01 02:41:06;;;;;;;13.30;11.00;;;;;;;;;;5117966;28;20466;-82
2022/01/01 02:43:32;;;;;;;13.88;10.70;;;;;;;;;;5108900;28;20180;-81
2022/01/01 02:45:58;;;;;;;20.00;11.77;;;;;;;;;;5106627;28;20220;-81
2022/01/01 02:48:24;;;;;;;15.05;11.85;;;;;;;;;;5104845;28;20175;-82
2022/01/01 02:50:53;;;;;;;18.47;12.10;;;;;;;;;;5109609;28;20187;-82
2022/01/01 02:53:19;;;;;;;15.07;11.70;;;;;;;;;;5108926;28;20445;-82
2022/01/01 02:55:46;;;;;;;22.20;12.25;;;;;;;;;;5109421;28;20250;-81
2022/01/01 02:58:12;;;;;;;19.42;11.02;;;;;;;;;;5104603;28;20193;-83
2022/01/01 03:00:39;;;;;;;10.32;9.13;;;;;;;;;;5108738;28;20227;-82
2022/01/01 03:03:04;;;;;;;14.77;9.90;;;;;;;;;;5110601;28;20187;-82
2022/01/01 03:05:31;;;;;;;14.13;10.30;;;;;;;;;;5096012;28;20176;-82
2022/01/01 03:07:57;;;;;;;12.55;11.00;;;;;;;;;;5114104;28;20987;-82
2022/01/01 03:10:23;;;;;;;18.02;11.80;;;;;;;;;;5105879;28;20183;-82
2022/01/01 03:12:49;;;;;;;16.42;13.05;;;;;;;;;;5105930;28;20194;-83
2022/01/01 03:15:15;;;;;;;15.73;12.40;;;;;;;;;;5109375;28;20243;-82
2022/01/01 03:17:41;;;;;;;14.77;11.93;;;;;;;;;;5108843;28;20493;-82
2022/01/01 03:20:08;;;;;;;13.15;10.27;;;;;;;;;;5118609;28;20207;-82
2022/01/01 03:22:34;;;;;;;13.07;9.95;;;;;;;;;;5106661;28;20222;-82
2022/01/01 03:25:00;;;;;;;14.90;9.98;;;;;;;;;;5106061;28;20217;-82
2022/01/01 03:27:26;;;;;;;12.37;10.30;;;;;;;;;;5101765;28;20590;-82
2022/01/01 03:29:52;;;;;;;12.80;9.90;;;;;;;;;;5108404;28;20453;-82
2022/01/01 03:32:18;;;;;;;10.67;9.30;;;;;;;;;;5094220;28;20450;-82
2022/01/01 03:34:44;;;;;;;12.40;9.20;;;;;;;;;;5092801;28;20434;-82
2022/01/01 03:37:10;;;;;;;11.93;8.35;;;;;;;;;;5120670;28;20191;-83
2022/01/01 03:39:36;;;;;;;8.52;7.55;;;;;;;;;;5102633;28;20229;-82
2022/01/01 03:42:02;;;;;;;11.32;8.43;;;;;;;;;;5109091;28;20183;-83
2022/01/01 03:44:28;;;;;;;14.73;10.38;;;;;;;;;;5114162;28;20207;-83
2022/01/01 03:47:01;;;;;;;11.10;9.23;;;;;;;;;;5108837;28;20183;-82
2022/01/01 03:49:27;;;;;;;11.57;8.90;;;;;;;;;;5089587;28;20501;-82
2022/01/01 03:51:53;;;;;;;12.43;7.63;;;;;;;;;;5121282;28;20167;-82
2022/01/01 03:54:20;;;;;;;9.13;8.25;;;;;;;;;;5107903;28;20413;-82
2022/01/01 03:56:46;;;;;;;12.48;9.20;;;;;;;;;;5093289;28;20187;-82
2022/01/01 03:59:12;;;;;;;11.63;9.55;;;;;;;;;;5108868;28;20294;-83
2022/01/01 04:01:38;;;;;;;12.18;8.88;;;;;;;;;;5092506;28;20199;-82
2022/01/01 04:04:04;;;;;;;11.70;8.52;;;;;;;;;;5105036;28;20191;-82
2022/01/01 04:06:30;;;;;;;10.80;7.68;;;;;;;;;;5107628;28;20171;-82
2022/01/01 04:08:56;;;;;;;11.05;8.82;;;;;;;;;;5108777;28;20241;-82
2022/01/01 04:11:22;;;;;;;14.93;9.10;;;;;;;;;;5093153;28;20430;-83
2022/01/01 04:13:48;;;;;;;11.98;7.57;;;;;;;;;;5093911;28;20183;-82
2022/01/01 04:16:16;;;;;;;11.23;8.35;;;;;;;;;;5087062;28;20176;-83
2022/01/01 04:18:43;;;;;;;9.60;8.13;;;;;;;;;;5105858;28;20222;-83
2022/01/01 04:21:09;;;;;;;11.15;8.55;;;;;;;;;;5118116;28;20648;-83
2022/01/01 04:23:36;;;;;;;11.60;7.00;;;;;;;;;;5111677;28;20276;-83
2022/01/01 04:26:02;;;;;;;13.65;8.60;;;;;;;;;;5108880;28;20190;-83
2022/01/01 04:28:28;;;;;;;10.27;8.55;;;;;;;;;;5089286;28;20589;-82
2022/01/01 04:30:54;;;;;;;10.73;8.43;;;;;;;;;;5104468;28;20184;-83
2022/01/01 04:33:20;;;;;;;9.60;8.18;;;;;;;;;;5107370;28;20248;-83
2022/01/01 04:35:46;;;;;;;10.25;6.03;;;;;;;;;;5097466;28;20190;-83
2022/01/01 04:38:30;;;;;;;8.27;7.18;;;;;;;;;;5115191;28;20225;-82
2022/01/01 04:40:56;;;;;;;12.38;8.77;;;;;;;;;;5092971;28;20258;-83
2022/01/01 04:43:22;;;;;;;11.35;7.53;;;;;;;;;;5088271;28;20172;-83
2022/01/01 04:45:48;;;;;;;8.75;6.80;;;;;;;;;;5109457;28;20163;-83
2022/01/01 04:48:14;;;;;;;8.50;7.00;;;;;;;;;;5092972;28;20168;-83
2022/01/01 04:50:40;;;;;;;9.77;7.50;;;;;;;;;;5112556;28;20429;-82
2022/01/01 04:53:06;;;;;;;10.37;7.60;;;;;;;;;;5115769;28;20454;-82
2022/01/01 04:55:33;;;;;;;9.50;8.30;;;;;;;;;;5106268;28;20486;-83
2022/01/01 04:57:59;;;;;;;12.23;8.13;;;;;;;;;;5103503;28;20197;-83
2022/01/01 05:00:25;;;;;;;11.50;7.95;;;;;;;;;;5112948;28;20199;-83
2022/01/01 05:02:51;;;;;;;9.57;7.93;;;;;;;;;;5124351;28;20183;-82
2022/01/01 05:05:17;;;;;;;8.82;6.78;;;;;;;;;;5109202;28;20462;-83
2022/01/01 05:07:44;;;;;;;8.10;7.30;;;;;;;;;;5107991;28;20178;-83
2022/01/01 05:10:10;;;;;;;8.38;7.43;;;;;;;;;;5102018;28;20176;-83
2022/01/01 05:12:36;;;;;;;8.63;7.65;;;;;;;;;;5108448;28;20168;-83
2022/01/01 05:15:02;;;;;;;8.53;7.60;;;;;;;;;;5108758;28;20199;-83
2022/01/01 05:17:28;;;;;;;13.15;7.43;;;;;;;;;;5093753;28;20500;-83
2022/01/01 05:19:54;;;;;;;9.40;7.40;;;;;;;;;;5117147;28;20207;-83
2022/01/01 05:22:20;;;;;;;9.80;7.93;;;;;;;;;;5088332;28;20671;-83
2022/01/01 05:24:46;;;;;;;12.10;8.10;;;;;;;;;;5100781;28;20417;-82
2022/01/01 05:27:12;;;;;;;7.37;6.70;;;;;;;;;;5107037;28;20198;-83
2022/01/01 05:29:38;;;;;;;9.05;6.70;;;;;;;;;;5097578;28;20425;-83
2022/01/01 05:32:04;;;;;;;9.20;6.97;;;;;;;;;;5119346;28;20193;-83
2022/01/01 05:34:30;;;;;;;7.30;6.60;;;;;;;;;;5093741;28;20437;-83
2022/01/01 05:36:56;;;;;;;9.77;7.55;;;;;;;;;;5107964;28;20191;-83
2022/01/01 05:39:22;;;;;;;8.93;6.68;;;;;;;;;;5108988;28;20203;-83
2022/01/01 05:41:52;;;;;;;10.73;7.00;;;;;;;;;;5096410;28;20184;-83
2022/01/01 05:44:18;;;;;;;10.48;8.38;;;;;;;;;;5111891;28;20432;-83
2022/01/01 05:46:44;;;;;;;11.25;7.82;;;;;;;;;;5095659;28;20178;-83
2022/01/01 05:49:10;;;;;;;9.15;7.15;;;;;;;;;;5106844;28;20196;-83
2022/01/01 05:51:36;;;;;;;11.75;6.38;;;;;;;;;;5121001;28;20350;-83
2022/01/01 05:54:02;;;;;;;8.98;7.68;;;;;;;;;;5111087;28;20194;-83
2022/01/01 05:56:28;;;;;;;10.50;7.00;;;;;;;;;;5105730;28;20180;-83
2022/01/01 05:58:54;;;;;;;7.80;5.63;;;;;;;;;;5092602;28;20187;-83
2022/01/01 06:01:20;;;;;;;7.75;6.35;;;;;;;;;;5122283;28;20198;-83
2022/01/01 06:03:46;;;;;;;8.60;6.77;;;;;;;;;;5104359;28;20170;-83
2022/01/01 06:06:12;;;;;;;6.63;6.00;;;;;;;;;;5096120;28;20452;-83
2022/01/01 06:08:38;;;;;;;7.60;6.30;;;;;;;;;;5098384;28;20255;-83
2022/01/01 06:11:04;;;;;;;9.90;7.00;;;;;;;;;;5120357;28;20445;-83
2022/01/01 06:13:30;;;;;;;7.13;6.03;;;;;;;;;;5092646;28;20494;-83
2022/01/01 06:15:56;;;;;;;8.00;6.77;;;;;;;;;;5107409;28;20421;-84
2022/01/01 06:18:22;;;;;;;6.78;5.68;;;;;;;;;;5110755;28;20466;-84
2022/01/01 06:20:48;;;;;;;8.18;5.90;;;;;;;;;;5095570;28;20204;-84
2022/01/01 06:23:14;;;;;;;7.05;6.30;;;;;;;;;;5101645;28;20484;-83
2022/01/01 06:25:40;;;;;;;6.10;5.50;;;;;;;;;;5116892;28;20201;-84
2022/01/01 06:28:06;;;;;;;6.70;6.10;;;;;;;;;;5106812;28;20191;-84
2022/01/01 06:30:35;;;;;;;13.53;5.80;;;;;;;;;;5110091;28;20429;-84
2022/01/01 06:33:02;;;;;;;10.20;6.50;;;;;;;;;;5102391;28;20444;-84
2022/01/01 06:35:28;;;;;;;6.32;5.75;;;;;;;;;;5114917;28;20180;-84
2022/01/01 06:37:54;;;;;;;6.47;5.82;;;;;;;;;;5092074;28;20203;-84
2022/01/01 06:40:20;;;;;;;6.97;5.43;;;;;;;;;;5120166;28;20477;-84
2022/01/01 06:42:46;;;;;;;6.78;6.07;;;;;;;;;;5109371;28;20827;-84
2022/01/01 06:45:12;;;;;;;5.67;5.17;;;;;;;;;;5102724;28;20175;-84
2022/01/01 06:47:38;;;;;;;6.15;5.50;;;;;;;;;;5100635;28;20460;-84
2022/01/01 06:50:04;;;;;;;8.07;5.77;;;;;;;;;;5100598;28;20204;-84
2022/01/01 06:52:30;;;;;;;5.85;5.25;;;;;;;;;;5113553;28;20472;-83
2022/01/01 06:54:56;;;;;;;5.95;5.38;;;;;;;;;;5107960;28;20180;-83
2022/01/01 06:57:22;;;;;;;6.57;5.73;;;;;;;;;;5108977;28;20171;-83
2022/01/01 06:59:48;;;;;;;10.43;5.60;;;;;;;;;;5110149;28;20574;-85
2022/01/01 07:02:14;;;;;;;6.32;5.60;;;;;;;;;;5095419;28;20194;-85
2022/01/01 07:04:40;;;;;;;5.43;4.83;;;;;;;;;;5109054;28;20174;-84
2022/01/01 07:07:06;;;;;;;6.88;5.20;;;;;;;;;;5105182;28;20453;-84
2022/01/01 07:09:32;;;;;;;9.55;5.03;;;;;;;;;;5102886;28;20198;-84
2022/01/01 07:11:59;;;;;;;6.28;5.68;;;;;;;;;;5109714;28;20645;-84
2022/01/01 07:14:25;;;;;;;6.63;5.38;;;;;;;;;;5094984;28;20184;-84
2022/01/01 07:16:51;;;;;;;5.90;4.70;;;;;;;;;;5105827;28;20286;-84
2022/01/01 07:19:17;;;;;;;4.65;4.25;;;;;;;;;;5120426;28;20214;-84
2022/01/01 07:21:43;;;;;;;6.65;5.25;;;;;;;;;;5120534;28;20175;-84
2022/01/01 07:24:09;;;;;;;7.60;4.70;;;;;;;;;;5117688;28;20178;-83
2022/01/01 07:26:35;;;;;;;8.65;5.30;;;;;;;;;;5113242;28;20317;-84
2022/01/01 07:29:01;;;;;;;8.23;5.75;;;;;;;;;;5094389;28;20182;-84
2022/01/01 07:31:27;;;;;;;6.03;4.75;;;;;;;;;;5090772;28;20706;-84
2022/01/01 07:33:53;;;;;;;5.68;4.88;;;;;;;;;;5116435;28;20171;-84
2022/01/01 07:36:19;;;;;;;6.18;5.07;;;;;;;;;;5108694;28;20168;-84
2022/01/01 07:38:45;;;;;;;4.47;3.90;;;;;;;;;;5093807;28;20241;-84
2022/01/01 07:41:11;;;;;;;6.05;5.25;;;;;;;;;;5093859;28;20204;-84
2022/01/01 07:43:38;;;;;;;6.63;5.57;;;;;;;;;;5092378;28;20189;-83
2022/01/01 07:46:04;;;;;;;5.85;4.70;;;;;;;;;;5104617;28;20243;-83
2022/01/01 07:48:30;;;;;;;6.70;5.60;;;;;;;;;;5102132;28;20175;-83
2022/01/01 07:50:56;;;;;;;8.90;5.35;;;;;;;;;;5099089;28;20198;-83
2022/01/01 07:53:22;;;;;;;7.57;6.17;;;;;;;;;;5109265;28;20184;-84
2022/01/01 07:55:48;;;;;;;9.60;6.10;;;;;;;;;;5091116;28;20437;-84
2022/01/01 07:58:14;;;;;;;7.20;5.22;;;;;;;;;;5119901;28;20186;-83
2022/01/01 08:00:40;;;;;;;5.72;4.70;;;;;;;;;;5104431;28;20290;-84
2022/01/01 08:03:06;;;;;;;6.80;5.50;;;;;;;;;;5105480;28;20367;-83
2022/01/01 08:05:32;;;;;;;19.48;7.30;;;;;;;;;;5113948;28;20440;-84
2022/01/01 08:07:58;;;;;;;14.32;7.28;;;;;;;;;;5090569;28;20183;-83
2022/01/01 08:10:24;;;;;;;9.18;6.00;;;;;;;;;;5107785;28;20174;-84
2022/01/01 08:12:53;;;;;;;12.75;6.82;;;;;;;;;;5106745;28;20184;-84
2022/01/01 08:15:19;;;;;;;9.18;6.43;;;;;;;;;;5118052;28;20179;-84
2022/01/01 08:17:45;;;;;;;16.27;6.20;;;;;;;;;;5109741;28;20223;-84
2022/01/01 08:20:11;;;;;;;8.80;5.77;;;;;;;;;;5110895;28;20232;-84
2022/01/01 08:22:39;;;;;;;8.55;6.20;;;;;;;;;;5101751;28;20450;-84
2022/01/01 08:25:05;;;;;;;7.47;5.88;;;;;;;;;;5119612;28;20190;-84
2022/01/01 08:27:31;;;;;;;8.02;6.57;;;;;;;;;;5100788;28;20271;-84
2022/01/01 08:29:57;;;;;;;9.45;6.13;;;;;;;;;;5107537;28;20209;-83
2022/01/01 08:32:23;;;;;;;8.15;6.90;;;;;;;;;;5114463;28;20631;-85
2022/01/01 08:34:50;;;;;;;10.50;7.10;;;;;;;;;;5107542;28;20210;-90
2022/01/01 08:37:16;;;;;;;11.18;7.57;;;;;;;;;;5111410;28;20183;-91
2022/01/01 08:39:42;;;;;;;6.78;5.93;;;;;;;;;;5118228;28;20203;-90
2022/01/01 08:42:09;;;;;;;8.32;6.70;;;;;;;;;;5112219;28;20174;-90
2022/01/01 08:44:35;;;;;;;10.23;6.35;;;;;;;;;;5112307;28;20176;-90
2022/01/01 08:47:01;;;;;;;9.38;6.22;;;;;;;;;;5105156;28;20670;-88
2022/01/01 08:49:27;;;;;;;9.20;7.00;;;;;;;;;;5100241;28;20251;-90
2022/01/01 08:51:55;;;;;;;8.30;6.53;;;;;;;;;;5102460;28;20254;-89
2022/01/01 08:54:21;;;;;;;10.95;6.75;;;;;;;;;;5111537;28;20460;-91
2022/01/01 08:56:47;;;;;;;8.18;6.40;;;;;;;;;;5096434;28;20191;-90
2022/01/01 08:59:13;;;;;;;9.55;6.70;;;;;;;;;;5096157;28;20178;-91
2022/01/01 09:01:39;;;;;;;9.70;6.77;;;;;;;;;;5101735;28;20547;-92
2022/01/01 09:04:06;;;;;;;9.07;6.37;;;;;;;;;;5120825;28;20441;-91
2022/01/01 09:06:32;;;;;;;10.70;7.05;;;;;;;;;;5103841;28;20458;-91
2022/01/01 09:08:58;;;;;;;9.50;7.30;;;;;;;;;;5119057;28;20197;-91
2022/01/01 09:11:24;;;;;;;9.23;6.97;;;;;;;;;;5118370;28;20194;-92
2022/01/01 09:13:53;;;;;;;9.93;7.25;;;;;;;;;;5124489;28;20688;-91
2022/01/01 09:16:23;;;;;;;12.32;6.90;;;;;;;;;;5110998;28;20179;-91
2022/01/01 09:18:49;;;;;;;9.30;7.57;;;;;;;;;;5122772;28;20330;-90
2022/01/01 09:21:15;;;;;;;8.68;7.75;;;;;;;;;;5111856;28;20221;-91
2022/01/01 09:23:41;;;;;;;10.55;8.35;;;;;;;;;;5116731;28;20248;-90
2022/01/01 09:26:07;;;;;;;10.23;7.88;;;;;;;;;;5113223;28;20211;-90
2022/01/01 09:28:34;;;;;;;12.63;9.60;;;;;;;;;;5112504;28;20179;-89
2022/01/01 09:31:01;;;;;;;10.77;8.43;;;;;;;;;;5110320;28;20183;-89
2022/01/01 09:33:29;;;;;;;14.45;7.85;;;;;;;;;;5126274;28;20242;-88
2022/01/01 09:35:59;;;;;;;10.02;8.65;;;;;;;;;;5113592;28;20179;-87
2022/01/01 09:38:25;;;;;;;12.93;9.02;;;;;;;;;;5118403;28;20644;-88
2022/01/01 09:40:55;;;;;;;14.13;11.02;;;;;;;;;;5122014;28;20289;-88
2022/01/01 09:43:22;;;;;;;16.15;9.48;;;;;;;;;;5124112;28;20702;-89
2022/01/01 09:45:49;;;;;;;15.70;11.63;;;;;;;;;;5110271;28;20171;-88
2022/01/01 09:48:16;;;;;;;13.35;9.23;;;;;;;;;;5119842;28;20179;-89
2022/01/01 09:50:46;;;;;;;11.73;8.60;;;;;;;;;;5114570;28;20186;-88
2022/01/01 09:53:12;;;;;;;11.30;9.23;;;;;;;;;;5110996;28;20183;-88
2022/01/01 09:55:38;;;;;;;9.63;8.70;;;;;;;;;;5113216;28;20186;-88
2022/01/01 09:58:04;;;;;;;11.87;8.80;;;;;;;;;;5120458;28;21296;-90
2022/01/01 10:00:30;;;;;;;10.23;8.47;;;;;;;;;;5095205;28;20449;-88
2022/01/01 10:02:56;;;;;;;10.02;7.55;;;;;;;;;;5115938;28;20528;-89
2022/01/01 10:05:22;;;;;;;11.15;8.15;;;;;;;;;;5107081;28;20230;-87
2022/01/01 10:07:48;;;;;;;9.85;7.68;;;;;;;;;;5110026;28;20662;-88
2022/01/01 10:10:25;;;;;;;14.02;7.90;;;;;;;;;;5096384;28;20183;-86
2022/01/01 10:12:54;;;;;;;8.68;7.35;;;;;;;;;;5116817;28;20589;-89
2022/01/01 10:15:20;;;;;;;9.98;7.60;;;;;;;;;;5107259;28;20193;-90
2022/01/01 10:17:49;;;;;;;8.15;6.47;;;;;;;;;;5110312;28;20795;-89
2022/01/01 10:20:16;;;;;;;10.52;7.10;;;;;;;;;;5118822;28;20200;-88
2022/01/01 10:22:43;;;;;;;7.22;6.10;;;;;;;;;;5123125;28;20246;-90
2022/01/01 10:28:02;;;;;;;9.20;6.85;;;;;;;;;;5123489;28;20305;-89
2022/01/01 10:30:36;;;;;;;7.93;7.13;;;;;;;;;;5106541;28;20172;-88
2022/01/01 10:33:07;;;;;;;9.05;6.80;;;;;;;;;;5097795;28;20570;-89
2022/01/01 10:35:37;;;;;;;7.00;6.18;;;;;;;;;;5098004;28;20183;-89
2022/01/01 10:38:04;;;;;;;7.47;6.05;;;;;;;;;;5114812;28;20668;-89
2022/01/01 10:40:30;;;;;;;6.20;5.60;;;;;;;;;;5092398;28;20456;-89
2022/01/01 10:42:56;;;;;;;8.80;5.93;;;;;;;;;;5118945;28;20183;-91
2022/01/01 10:45:29;;;;;;;8.50;6.20;;;;;;;;;;5110487;28;20355;-89
2022/01/01 10:48:05;;;;;;;6.43;5.82;;;;;;;;;;5091127;28;20207;-90
2022/01/01 10:50:35;;;;;;;6.25;5.45;;;;;;;;;;5110251;28;20184;-89
2022/01/01 10:53:13;;;;;;;4.80;4.38;;;;;;;;;;5114682;27;20885;-89
2022/01/01 10:55:43;;;;;;;4.68;3.70;;;;;;;;;;5108295;27;20204;-90
2022/01/01 10:58:09;;;;;;;4.55;3.50;;;;;;;;;;5134755;27;20185;-89
2022/01/01 11:00:42;;;;;;;6.85;4.25;;;;;;;;;;5105675;28;20233;-88
2022/01/01 11:03:09;;;;;;;5.25;3.85;;;;;;;;;;5116421;28;20180;-89
2022/01/01 11:05:37;;;;;;;5.30;3.60;;;;;;;;;;5102789;28;20199;-88
2022/01/01 11:08:04;;;;;;;5.63;3.28;;;;;;;;;;5102343;28;20179;-89
2022/01/01 11:10:31;;;;;;;3.08;2.83;;;;;;;;;;5121125;27;20184;-89
2022/01/01 11:12:59;;;;;;;3.75;3.25;;;;;;;;;;5106384;28;20176;-88
2022/01/01 11:15:25;;;;;;;3.30;3.05;;;;;;;;;;5105442;28;20172;-88
2022/01/01 11:17:51;;;;;;;3.40;3.10;;;;;;;;;;5093857;28;20731;-83
2022/01/01 11:20:17;;;;;;;2.90;2.70;;;;;;;;;;5110348;27;20204;-84
2022/01/01 11:22:44;;;;;;;3.00;2.53;;;;;;;;;;5093600;28;20193;-84
2022/01/01 11:25:10;;;;;;;2.63;2.40;;;;;;;;;;5087744;27;20675;-84
2022/01/01 11:27:36;;;;;;;7.45;2.80;;;;;;;;;;5091346;28;20175;-84
2022/01/01 11:30:04;;;;;;;2.78;2.58;;;;;;;;;;5093216;28;20191;-84
2022/01/01 11:32:38;;;;;;;2.85;2.50;;;;;;;;;;5094658;28;20191;-84
2022/01/01 11:35:05;;;;;;;3.05;2.75;;;;;;;;;;5108457;28;20238;-84
2022/01/01 11:37:50;;;;;;;2.72;2.53;;;;;;;;;;5090969;28;20201;-83
2022/01/01 11:40:17;;;;;;;2.80;2.50;;;;;;;;;;5085222;28;20195;-84
2022/01/01 11:42:47;;;;;;;3.28;2.70;;;;;;;;;;5090513;28;20180;-83
2022/01/01 11:45:32;;;;;;;4.47;2.60;;;;;;;;;;5097182;28;20239;-83
2022/01/01 11:48:31;;;;;;;3.03;2.78;;;;;;;;;;5094046;28;20215;-83
2022/01/01 11:50:57;;;;;;;3.40;2.65;;;;;;;;;;5060903;28;20196;-83
2022/01/01 11:53:32;;;;;;;2.65;2.45;;;;;;;;;;5036589;28;20208;-84
2022/01/01 11:56:12;;;;;;;3.35;2.63;;;;;;;;;;5031268;28;20206;-83
2022/01/01 11:58:50;;;;;;;2.30;1.73;;;;;;;;;;5074611;28;20282;-83
2022/01/01 12:01:19;;;;;;;4.25;3.20;;;;;;;;;;5056879;28;20212;-84
2022/01/01 12:04:03;;;;;;;2.92;2.00;;;;;;;;;;5078481;28;20174;-82
2022/01/01 12:06:29;;;;;;;2.63;2.35;;;;;;;;;;5064427;28;20177;-82
2022/01/01 12:08:56;;;;;;;2.63;2.22;;;;;;;;;;5031431;28;20196;-82
2022/01/01 12:11:32;;;;;;;2.90;2.70;;;;;;;;;;5029593;28;20193;-82
2022/01/01 12:13:59;;;;;;;4.07;2.63;;;;;;;;;;5048228;28;20315;-82
2022/01/01 12:16:26;;;;;;;3.58;2.17;;;;;;;;;;5040687;28;20182;-82
2022/01/01 12:19:18;;;;;;;3.97;2.85;;;;;;;;;;5076783;28;20257;-82
2022/01/01 12:21:44;;;;;;;2.67;2.40;;;;;;;;;;5052863;28;20278;-83
2022/01/01 12:24:17;;;;;;;3.38;2.42;;;;;;;;;;5063316;28;20755;-82
2022/01/01 12:26:50;;;;;;;2.45;1.83;;;;;;;;;;5068539;28;20191;-82
2022/01/01 12:29:22;;;;;;;4.60;2.20;;;;;;;;;;5093014;28;20171;-83
2022/01/01 12:31:54;;;;;;;2.65;2.13;;;;;;;;;;5119756;28;20716;-82
2022/01/01 12:34:22;;;;;;;3.67;2.58;;;;;;;;;;5087676;28;20615;-82
2022/01/01 12:36:51;;;;;;;2.53;2.30;;;;;;;;;;5088305;28;20559;-82
2022/01/01 12:39:17;;;;;;;3.22;2.58;;;;;;;;;;5117577;28;20187;-82
2022/01/01 12:41:44;;;;;;;3.53;2.53;;;;;;;;;;5096288;28;20248;-82
2022/01/01 12:44:16;;;;;;;2.08;1.88;;;;;;;;;;5109047;28;20243;-81
2022/01/01 12:46:47;;;;;;;2.50;2.30;;;;;;;;;;5088752;28;20366;-82
2022/01/01 12:49:13;;;;;;;3.60;2.55;;;;;;;;;;5086759;28;20179;-82
2022/01/01 12:51:39;;;;;;;2.70;2.20;;;;;;;;;;5108367;28;20504;-82
2022/01/01 12:54:05;;;;;;;2.92;2.60;;;;;;;;;;5092622;28;20422;-82
2022/01/01 12:56:31;;;;;;;2.77;2.57;;;;;;;;;;5093844;28;20247;-82
2022/01/01 12:58:58;;;;;;;2.50;2.30;;;;;;;;;;5093083;28;20440;-82
2022/01/01 13:01:27;;;;;;;3.03;2.47;;;;;;;;;;5104637;28;20195;-82
2022/01/01 13:03:55;;;;;;;2.50;2.30;;;;;;;;;;5087485;28;20255;-82
2022/01/01 13:06:26;;;;;;;3.80;2.90;;;;;;;;;;5090050;28;20551;-82
2022/01/01 13:08:52;;;;;;;2.50;2.00;;;;;;;;;;5101718;28;20208;-82
2022/01/01 13:11:19;;;;;;;3.22;2.50;;;;;;;;;;5099568;28;20278;-83
2022/01/01 13:13:45;;;;;;;3.92;2.40;;;;;;;;;;5107890;28;20187;-82
2022/01/01 13:16:11;;;;;;;2.28;2.00;;;;;;;;;;5085687;28;20184;-82
2022/01/01 13:18:37;;;;;;;3.47;2.40;;;;;;;;;;5089894;28;20223;-82
2022/01/01 13:21:04;;;;;;;4.75;2.53;;;;;;;;;;5102777;28;20231;-82
2022/01/01 13:23:31;;;;;;;2.63;2.42;;;;;;;;;;5097773;28;20200;-82
2022/01/01 13:25:57;;;;;;;2.65;2.45;;;;;;;;;;5092259;28;20702;-82
2022/01/01 13:28:24;;;;;;;2.60;2.40;;;;;;;;;;5103283;28;20183;-82
2022/01/01 13:30:51;;;;;;;4.03;2.60;;;;;;;;;;5119432;28;20411;-82
2022/01/01 13:33:17;;;;;;;3.42;2.50;;;;;;;;;;5103813;28;20230;-82
2022/01/01 13:35:48;;;;;;;2.50;2.28;;;;;;;;;;5096557;28;20562;-82
2022/01/01 13:38:15;;;;;;;2.45;2.25;;;;;;;;;;5092662;28;20195;-82
2022/01/01 13:40:44;;;;;;;3.75;2.38;;;;;;;;;;5091805;28;20209;-82
2022/01/01 13:43:10;;;;;;;2.20;2.00;;;;;;;;;;5104125;28;20171;-82
2022/01/01 13:45:36;;;;;;;4.18;2.88;;;;;;;;;;5089079;28;20172;-82
2022/01/01 13:48:09;;;;;;;2.13;1.90;;;;;;;;;;5102844;28;20307;-82
2022/01/01 13:50:42;;;;;;;2.60;1.98;;;;;;;;;;5100867;28;20186;-82
2022/01/01 13:53:09;;;;;;;2.50;2.05;;;;;;;;;;5104436;28;20206;-82
2022/01/01 13:55:36;;;;;;;2.08;1.80;;;;;;;;;;5091965;28;20180;-82
2022/01/01 13:58:05;;;;;;;2.30;2.10;;;;;;;;;;5123493;28;20194;-82
2022/01/01 14:00:34;;;;;;;2.15;1.83;;;;;;;;;;5093134;28;20199;-83
2022/01/01 14:03:04;;;;;;;3.47;1.98;;;;;;;;;;5111337;27;20184;-82
2022/01/01 14:05:30;;;;;;;2.72;2.53;;;;;;;;;;5095742;28;20176;-82
2022/01/01 14:08:16;;;;;;;2.15;2.00;;;;;;;;;;5094820;28;20191;-82
2022/01/01 14:10:42;;;;;;;3.00;1.85;;;;;;;;;;5122840;28;20683;-82
2022/01/01 14:13:08;;;;;;;2.60;2.40;;;;;;;;;;5089605;28;20259;-83
2022/01/01 14:15:37;;;;;;;2.40;2.20;;;;;;;;;;5110461;28;20418;-82
2022/01/01 14:18:09;;;;;;;2.55;2.25;;;;;;;;;;5095651;28;20286;-82
2022/01/01 14:20:36;;;;;;;2.80;2.60;;;;;;;;;;5095495;28;20263;-82
2022/01/01 14:23:03;;;;;;;3.65;2.20;;;;;;;;;;5095831;28;20185;-82
2022/01/01 14:25:30;;;;;;;2.63;2.10;;;;;;;;;;5091930;28;20180;-81
2022/01/01 14:28:03;;;;;;;2.70;1.98;;;;;;;;;;5108992;28;20198;-81
2022/01/01 14:30:30;;;;;;;3.72;2.58;;;;;;;;;;5111099;28;20224;-82
2022/01/01 14:32:57;;;;;;;2.35;2.00;;;;;;;;;;5095516;28;20192;-81
2022/01/01 14:35:23;;;;;;;3.85;2.60;;;;;;;;;;5095666;28;20179;-81
2022/01/01 14:37:50;;;;;;;2.10;1.88;;;;;;;;;;5096198;28;20183;-81
2022/01/01 14:40:17;;;;;;;3.30;1.95;;;;;;;;;;5089918;28;20218;-82